sensor_id;sensor_type;location;lat;lon;timestamp;P1;durP1;ratioP1;P2;durP2;ratioP2
11524;SDS011;5819;49.648;8.330;2023-04-16T00:01:20;16.83;;;15.02;;
11524;SDS011;5819;49.648;8.330;2023-04-16T00:03:48;15.82;;;13.80;;
11524;SDS011;5819;49.648;8.330;2023-04-16T00:06:16;17.52;;;13.75;;
11524;SDS011;5819;49.648;8.330;2023-04-16T00:08:44;14.88;;;13.25;;
11524;SDS011;5819;49.648;8.330;2023-04-16T00:11:13;14.35;;;12.95;;
11524;SDS011;5819;49.648;8.330;2023-04-16T00:13:41;14.35;;;12.82;;
11524;SDS011;5819;49.648;8.330;2023-04-16T00:16:10;14.40;;;12.88;;
11524;SDS011;5819;49.648;8.330;2023-04-16T00:18:40;15.10;;;13.57;;
11524;SDS011;5819;49.648;8.330;2023-04-16T00:21:08;14.40;;;12.55;;
11524;SDS011;5819;49.648;8.330;2023-04-16T00:23:36;14.27;;;12.75;;
11524;SDS011;5819;49.648;8.330;2023-04-16T00:26:04;15.48;;;13.80;;
11524;SDS011;5819;49.648;8.330;2023-04-16T00:28:32;15.63;;;13.50;;
11524;SDS011;5819;49.648;8.330;2023-04-16T00:31:00;15.60;;;13.10;;
11524;SDS011;5819;49.648;8.330;2023-04-16T00:33:28;13.60;;;12.20;;
11524;SDS011;5819;49.648;8.330;2023-04-16T00:35:57;14.32;;;12.80;;
11524;SDS011;5819;49.648;8.330;2023-04-16T00:38:26;15.65;;;13.80;;
11524;SDS011;5819;49.648;8.330;2023-04-16T00:40:55;14.93;;;13.10;;
11524;SDS011;5819;49.648;8.330;2023-04-16T00:43:24;13.88;;;12.45;;
11524;SDS011;5819;49.648;8.330;2023-04-16T00:45:53;14.27;;;12.77;;
11524;SDS011;5819;49.648;8.330;2023-04-16T00:48:23;15.68;;;13.23;;
11524;SDS011;5819;49.648;8.330;2023-04-16T00:50:53;15.20;;;12.82;;
11524;SDS011;5819;49.648;8.330;2023-04-16T00:53:23;15.48;;;12.95;;
11524;SDS011;5819;49.648;8.330;2023-04-16T00:55:51;15.73;;;13.52;;
11524;SDS011;5819;49.648;8.330;2023-04-16T00:58:21;15.85;;;14.10;;
11524;SDS011;5819;49.648;8.330;2023-04-16T01:00:50;16.13;;;14.07;;
11524;SDS011;5819;49.648;8.330;2023-04-16T01:03:18;16.13;;;14.05;;
11524;SDS011;5819;49.648;8.330;2023-04-16T01:05:47;17.02;;;14.27;;
11524;SDS011;5819;49.648;8.330;2023-04-16T01:08:17;16.10;;;13.70;;
11524;SDS011;5819;49.648;8.330;2023-04-16T01:10:46;15.68;;;13.90;;
11524;SDS011;5819;49.648;8.330;2023-04-16T01:13:14;17.10;;;15.20;;
11524;SDS011;5819;49.648;8.330;2023-04-16T01:15:43;18.13;;;15.93;;
11524;SDS011;5819;49.648;8.330;2023-04-16T01:18:14;21.30;;;16.95;;
11524;SDS011;5819;49.648;8.330;2023-04-16T01:20:44;18.98;;;16.10;;
11524;SDS011;5819;49.648;8.330;2023-04-16T01:23:12;18.92;;;15.93;;
11524;SDS011;5819;49.648;8.330;2023-04-16T01:25:40;18.13;;;16.23;;
11524;SDS011;5819;49.648;8.330;2023-04-16T01:28:08;20.75;;;17.05;;
11524;SDS011;5819;49.648;8.330;2023-04-16T01:30:36;19.60;;;16.90;;
11524;SDS011;5819;49.648;8.330;2023-04-16T01:33:13;21.55;;;17.30;;
11524;SDS011;5819;49.648;8.330;2023-04-16T01:35:44;19.92;;;17.35;;
11524;SDS011;5819;49.648;8.330;2023-04-16T01:38:14;19.20;;;16.30;;
11524;SDS011;5819;49.648;8.330;2023-04-16T01:40:42;21.85;;;18.00;;
11524;SDS011;5819;49.648;8.330;2023-04-16T01:43:10;22.30;;;17.90;;
11524;SDS011;5819;49.648;8.330;2023-04-16T01:45:38;20.55;;;17.98;;
11524;SDS011;5819;49.648;8.330;2023-04-16T01:48:06;22.25;;;18.30;;
11524;SDS011;5819;49.648;8.330;2023-04-16T01:50:35;22.35;;;18.52;;
11524;SDS011;5819;49.648;8.330;2023-04-16T01:53:05;23.10;;;18.60;;
11524;SDS011;5819;49.648;8.330;2023-04-16T01:55:35;21.67;;;17.08;;
11524;SDS011;5819;49.648;8.330;2023-04-16T01:58:03;20.17;;;17.50;;
11524;SDS011;5819;49.648;8.330;2023-04-16T02:00:33;22.05;;;18.30;;
11524;SDS011;5819;49.648;8.330;2023-04-16T02:03:01;21.05;;;17.33;;
11524;SDS011;5819;49.648;8.330;2023-04-16T02:05:30;22.23;;;18.15;;
11524;SDS011;5819;49.648;8.330;2023-04-16T02:07:58;22.92;;;18.20;;
11524;SDS011;5819;49.648;8.330;2023-04-16T02:10:28;21.27;;;18.73;;
11524;SDS011;5819;49.648;8.330;2023-04-16T02:12:56;21.73;;;18.48;;
11524;SDS011;5819;49.648;8.330;2023-04-16T02:15:24;21.65;;;18.63;;
11524;SDS011;5819;49.648;8.330;2023-04-16T02:17:53;22.00;;;18.00;;
11524;SDS011;5819;49.648;8.330;2023-04-16T02:20:24;22.27;;;19.00;;
11524;SDS011;5819;49.648;8.330;2023-04-16T02:22:57;23.88;;;18.52;;
11524;SDS011;5819;49.648;8.330;2023-04-16T02:25:28;29.63;;;19.55;;
11524;SDS011;5819;49.648;8.330;2023-04-16T02:27:56;24.45;;;19.52;;
11524;SDS011;5819;49.648;8.330;2023-04-16T02:30:38;26.42;;;19.65;;
11524;SDS011;5819;49.648;8.330;2023-04-16T02:33:07;22.27;;;19.58;;
11524;SDS011;5819;49.648;8.330;2023-04-16T02:35:42;24.25;;;19.73;;
11524;SDS011;5819;49.648;8.330;2023-04-16T02:38:10;23.65;;;19.77;;
11524;SDS011;5819;49.648;8.330;2023-04-16T02:40:40;24.08;;;19.75;;
11524;SDS011;5819;49.648;8.330;2023-04-16T02:43:09;23.48;;;19.67;;
11524;SDS011;5819;49.648;8.330;2023-04-16T02:45:37;23.63;;;19.45;;
11524;SDS011;5819;49.648;8.330;2023-04-16T02:48:06;22.85;;;19.23;;
11524;SDS011;5819;49.648;8.330;2023-04-16T02:50:35;24.10;;;20.55;;
11524;SDS011;5819;49.648;8.330;2023-04-16T02:53:03;25.15;;;20.33;;
11524;SDS011;5819;49.648;8.330;2023-04-16T02:55:32;23.77;;;20.85;;
11524;SDS011;5819;49.648;8.330;2023-04-16T02:58:01;26.08;;;20.55;;
11524;SDS011;5819;49.648;8.330;2023-04-16T03:00:30;24.02;;;20.00;;
11524;SDS011;5819;49.648;8.330;2023-04-16T03:02:59;23.95;;;21.15;;
11524;SDS011;5819;49.648;8.330;2023-04-16T03:05:27;23.33;;;19.90;;
11524;SDS011;5819;49.648;8.330;2023-04-16T03:07:55;25.40;;;19.23;;
11524;SDS011;5819;49.648;8.330;2023-04-16T03:10:23;23.45;;;20.17;;
11524;SDS011;5819;49.648;8.330;2023-04-16T03:12:51;22.80;;;18.38;;
11524;SDS011;5819;49.648;8.330;2023-04-16T03:15:20;25.02;;;19.42;;
11524;SDS011;5819;49.648;8.330;2023-04-16T03:17:48;22.95;;;18.90;;
11524;SDS011;5819;49.648;8.330;2023-04-16T03:20:16;23.33;;;18.77;;
11524;SDS011;5819;49.648;8.330;2023-04-16T03:22:44;23.33;;;18.65;;
11524;SDS011;5819;49.648;8.330;2023-04-16T03:25:12;24.52;;;19.90;;
11524;SDS011;5819;49.648;8.330;2023-04-16T03:27:40;21.83;;;18.58;;
11524;SDS011;5819;49.648;8.330;2023-04-16T03:30:10;25.27;;;19.85;;
11524;SDS011;5819;49.648;8.330;2023-04-16T03:32:40;23.83;;;19.77;;
11524;SDS011;5819;49.648;8.330;2023-04-16T03:35:09;23.05;;;19.50;;
11524;SDS011;5819;49.648;8.330;2023-04-16T03:37:38;24.27;;;19.35;;
11524;SDS011;5819;49.648;8.330;2023-04-16T03:40:07;27.65;;;19.52;;
11524;SDS011;5819;49.648;8.330;2023-04-16T03:42:36;22.98;;;19.17;;
11524;SDS011;5819;49.648;8.330;2023-04-16T03:45:04;27.25;;;20.63;;
11524;SDS011;5819;49.648;8.330;2023-04-16T03:47:36;23.90;;;19.40;;
11524;SDS011;5819;49.648;8.330;2023-04-16T03:50:06;25.38;;;19.27;;
11524;SDS011;5819;49.648;8.330;2023-04-16T03:52:34;26.33;;;19.48;;
11524;SDS011;5819;49.648;8.330;2023-04-16T03:55:03;24.27;;;19.60;;
11524;SDS011;5819;49.648;8.330;2023-04-16T04:00:34;21.35;;;17.20;;
11524;SDS011;5819;49.648;8.330;2023-04-16T04:03:08;24.38;;;17.50;;
11524;SDS011;5819;49.648;8.330;2023-04-16T04:05:39;22.15;;;16.77;;
11524;SDS011;5819;49.648;8.330;2023-04-16T04:08:09;22.30;;;16.83;;
11524;SDS011;5819;49.648;8.330;2023-04-16T04:10:37;20.58;;;16.20;;
11524;SDS011;5819;49.648;8.330;2023-04-16T04:13:07;19.70;;;15.18;;
11524;SDS011;5819;49.648;8.330;2023-04-16T04:15:35;19.77;;;14.85;;
11524;SDS011;5819;49.648;8.330;2023-04-16T04:18:03;17.70;;;14.30;;
11524;SDS011;5819;49.648;8.330;2023-04-16T04:20:31;18.83;;;14.82;;
11524;SDS011;5819;49.648;8.330;2023-04-16T04:23:02;17.40;;;13.75;;
11524;SDS011;5819;49.648;8.330;2023-04-16T04:25:30;17.50;;;13.90;;
11524;SDS011;5819;49.648;8.330;2023-04-16T04:27:58;17.85;;;13.57;;
11524;SDS011;5819;49.648;8.330;2023-04-16T04:30:27;17.27;;;13.32;;
11524;SDS011;5819;49.648;8.330;2023-04-16T04:32:55;17.20;;;13.63;;
11524;SDS011;5819;49.648;8.330;2023-04-16T04:35:23;16.27;;;13.43;;
11524;SDS011;5819;49.648;8.330;2023-04-16T04:37:51;16.60;;;12.50;;
11524;SDS011;5819;49.648;8.330;2023-04-16T04:40:21;16.15;;;13.15;;
11524;SDS011;5819;49.648;8.330;2023-04-16T04:42:51;15.45;;;12.02;;
11524;SDS011;5819;49.648;8.330;2023-04-16T04:45:21;17.00;;;13.32;;
11524;SDS011;5819;49.648;8.330;2023-04-16T04:47:52;18.98;;;12.85;;
11524;SDS011;5819;49.648;8.330;2023-04-16T04:50:20;15.85;;;12.68;;
11524;SDS011;5819;49.648;8.330;2023-04-16T04:52:48;15.90;;;12.77;;
11524;SDS011;5819;49.648;8.330;2023-04-16T04:55:16;15.05;;;11.98;;
11524;SDS011;5819;49.648;8.330;2023-04-16T04:57:45;13.20;;;11.20;;
11524;SDS011;5819;49.648;8.330;2023-04-16T05:00:14;14.98;;;12.10;;
11524;SDS011;5819;49.648;8.330;2023-04-16T05:02:48;15.18;;;12.23;;
11524;SDS011;5819;49.648;8.330;2023-04-16T05:05:17;14.65;;;11.82;;
11524;SDS011;5819;49.648;8.330;2023-04-16T05:07:45;14.30;;;11.70;;
11524;SDS011;5819;49.648;8.330;2023-04-16T05:10:13;31.15;;;23.50;;
11524;SDS011;5819;49.648;8.330;2023-04-16T05:12:41;15.50;;;12.35;;
11524;SDS011;5819;49.648;8.330;2023-04-16T05:15:10;13.88;;;11.15;;
11524;SDS011;5819;49.648;8.330;2023-04-16T05:17:39;17.10;;;11.95;;
11524;SDS011;5819;49.648;8.330;2023-04-16T05:20:07;15.90;;;12.05;;
11524;SDS011;5819;49.648;8.330;2023-04-16T05:22:36;15.60;;;11.93;;
11524;SDS011;5819;49.648;8.330;2023-04-16T05:25:04;16.13;;;12.63;;
11524;SDS011;5819;49.648;8.330;2023-04-16T05:27:32;16.05;;;12.65;;
11524;SDS011;5819;49.648;8.330;2023-04-16T05:30:00;16.73;;;12.73;;
11524;SDS011;5819;49.648;8.330;2023-04-16T05:32:29;18.65;;;13.30;;
11524;SDS011;5819;49.648;8.330;2023-04-16T05:34:57;16.77;;;13.15;;
11524;SDS011;5819;49.648;8.330;2023-04-16T05:37:25;17.48;;;13.25;;
11524;SDS011;5819;49.648;8.330;2023-04-16T05:39:53;19.92;;;14.95;;
11524;SDS011;5819;49.648;8.330;2023-04-16T05:42:21;17.35;;;13.80;;
11524;SDS011;5819;49.648;8.330;2023-04-16T05:44:49;18.48;;;13.68;;
11524;SDS011;5819;49.648;8.330;2023-04-16T05:47:17;17.58;;;13.38;;
11524;SDS011;5819;49.648;8.330;2023-04-16T05:49:46;20.80;;;13.75;;
11524;SDS011;5819;49.648;8.330;2023-04-16T05:52:14;18.67;;;13.80;;
11524;SDS011;5819;49.648;8.330;2023-04-16T05:54:42;17.48;;;13.50;;
11524;SDS011;5819;49.648;8.330;2023-04-16T05:57:10;18.08;;;12.98;;
11524;SDS011;5819;49.648;8.330;2023-04-16T05:59:37;21.23;;;14.63;;
11524;SDS011;5819;49.648;8.330;2023-04-16T06:02:05;18.52;;;13.90;;
11524;SDS011;5819;49.648;8.330;2023-04-16T06:04:33;18.88;;;15.10;;
11524;SDS011;5819;49.648;8.330;2023-04-16T06:07:04;19.67;;;14.90;;
11524;SDS011;5819;49.648;8.330;2023-04-16T06:09:32;18.60;;;14.32;;
11524;SDS011;5819;49.648;8.330;2023-04-16T06:12:00;19.15;;;14.77;;
11524;SDS011;5819;49.648;8.330;2023-04-16T06:14:28;20.73;;;15.43;;
11524;SDS011;5819;49.648;8.330;2023-04-16T06:16:56;22.67;;;15.18;;
11524;SDS011;5819;49.648;8.330;2023-04-16T06:19:24;19.95;;;15.43;;
11524;SDS011;5819;49.648;8.330;2023-04-16T06:21:51;22.23;;;16.70;;
11524;SDS011;5819;49.648;8.330;2023-04-16T06:24:21;19.63;;;15.65;;
11524;SDS011;5819;49.648;8.330;2023-04-16T06:26:49;21.67;;;15.85;;
11524;SDS011;5819;49.648;8.330;2023-04-16T06:29:17;21.13;;;16.58;;
11524;SDS011;5819;49.648;8.330;2023-04-16T06:31:47;21.35;;;16.35;;
11524;SDS011;5819;49.648;8.330;2023-04-16T06:34:15;22.30;;;16.75;;
11524;SDS011;5819;49.648;8.330;2023-04-16T06:36:45;24.40;;;16.75;;
11524;SDS011;5819;49.648;8.330;2023-04-16T06:39:12;19.92;;;15.95;;
11524;SDS011;5819;49.648;8.330;2023-04-16T06:41:41;24.30;;;17.95;;
11524;SDS011;5819;49.648;8.330;2023-04-16T06:44:10;23.63;;;17.67;;
11524;SDS011;5819;49.648;8.330;2023-04-16T06:46:38;22.30;;;16.98;;
11524;SDS011;5819;49.648;8.330;2023-04-16T06:49:06;22.73;;;17.80;;
11524;SDS011;5819;49.648;8.330;2023-04-16T06:51:34;20.90;;;16.40;;
11524;SDS011;5819;49.648;8.330;2023-04-16T06:54:02;23.83;;;17.13;;
11524;SDS011;5819;49.648;8.330;2023-04-16T06:56:30;23.55;;;16.85;;
11524;SDS011;5819;49.648;8.330;2023-04-16T06:58:59;25.55;;;16.80;;
11524;SDS011;5819;49.648;8.330;2023-04-16T07:01:27;23.02;;;15.93;;
11524;SDS011;5819;49.648;8.330;2023-04-16T07:03:57;22.98;;;16.33;;
11524;SDS011;5819;49.648;8.330;2023-04-16T07:06:25;21.85;;;16.23;;
11524;SDS011;5819;49.648;8.330;2023-04-16T07:08:53;22.52;;;16.45;;
11524;SDS011;5819;49.648;8.330;2023-04-16T07:11:21;23.67;;;16.30;;
11524;SDS011;5819;49.648;8.330;2023-04-16T07:13:51;19.55;;;15.13;;
11524;SDS011;5819;49.648;8.330;2023-04-16T07:16:20;20.73;;;14.77;;
11524;SDS011;5819;49.648;8.330;2023-04-16T07:18:48;20.05;;;15.45;;
11524;SDS011;5819;49.648;8.330;2023-04-16T07:21:16;19.60;;;14.50;;
11524;SDS011;5819;49.648;8.330;2023-04-16T07:23:45;21.77;;;15.48;;
11524;SDS011;5819;49.648;8.330;2023-04-16T07:26:13;19.55;;;14.15;;
11524;SDS011;5819;49.648;8.330;2023-04-16T07:28:41;20.13;;;14.55;;
11524;SDS011;5819;49.648;8.330;2023-04-16T07:31:08;20.45;;;14.38;;
11524;SDS011;5819;49.648;8.330;2023-04-16T07:33:38;20.42;;;14.25;;
11524;SDS011;5819;49.648;8.330;2023-04-16T07:36:06;18.60;;;14.20;;
11524;SDS011;5819;49.648;8.330;2023-04-16T07:38:34;21.23;;;14.35;;
11524;SDS011;5819;49.648;8.330;2023-04-16T07:41:02;21.55;;;14.60;;
11524;SDS011;5819;49.648;8.330;2023-04-16T07:43:30;17.55;;;13.80;;
11524;SDS011;5819;49.648;8.330;2023-04-16T07:45:58;17.83;;;13.38;;
11524;SDS011;5819;49.648;8.330;2023-04-16T07:48:26;19.92;;;14.00;;
11524;SDS011;5819;49.648;8.330;2023-04-16T07:50:56;17.60;;;14.30;;
11524;SDS011;5819;49.648;8.330;2023-04-16T07:53:24;20.02;;;13.80;;
11524;SDS011;5819;49.648;8.330;2023-04-16T07:55:53;17.80;;;13.27;;
11524;SDS011;5819;49.648;8.330;2023-04-16T07:58:21;18.33;;;14.00;;
11524;SDS011;5819;49.648;8.330;2023-04-16T08:00:50;17.92;;;12.88;;
11524;SDS011;5819;49.648;8.330;2023-04-16T08:03:18;17.73;;;13.18;;
11524;SDS011;5819;49.648;8.330;2023-04-16T08:05:47;15.15;;;12.15;;
11524;SDS011;5819;49.648;8.330;2023-04-16T08:08:16;14.40;;;12.05;;
11524;SDS011;5819;49.648;8.330;2023-04-16T08:10:44;17.20;;;11.88;;
11524;SDS011;5819;49.648;8.330;2023-04-16T08:13:12;16.67;;;12.25;;
11524;SDS011;5819;49.648;8.330;2023-04-16T08:15:39;15.68;;;11.63;;
11524;SDS011;5819;49.648;8.330;2023-04-16T08:18:07;14.57;;;11.30;;
11524;SDS011;5819;49.648;8.330;2023-04-16T08:20:38;18.27;;;11.38;;
11524;SDS011;5819;49.648;8.330;2023-04-16T08:23:06;14.48;;;10.30;;
11524;SDS011;5819;49.648;8.330;2023-04-16T08:25:35;15.43;;;11.18;;
11524;SDS011;5819;49.648;8.330;2023-04-16T08:28:03;16.00;;;11.93;;
11524;SDS011;5819;49.648;8.330;2023-04-16T08:30:31;16.38;;;12.32;;
11524;SDS011;5819;49.648;8.330;2023-04-16T08:33:00;15.55;;;12.00;;
11524;SDS011;5819;49.648;8.330;2023-04-16T08:35:28;19.60;;;13.55;;
11524;SDS011;5819;49.648;8.330;2023-04-16T08:37:56;16.00;;;11.77;;
11524;SDS011;5819;49.648;8.330;2023-04-16T08:40:28;15.27;;;11.98;;
11524;SDS011;5819;49.648;8.330;2023-04-16T08:42:57;16.73;;;12.25;;
11524;SDS011;5819;49.648;8.330;2023-04-16T08:45:26;16.02;;;12.40;;
11524;SDS011;5819;49.648;8.330;2023-04-16T08:47:56;16.23;;;13.15;;
11524;SDS011;5819;49.648;8.330;2023-04-16T08:50:25;16.23;;;13.05;;
11524;SDS011;5819;49.648;8.330;2023-04-16T08:52:56;16.27;;;12.65;;
11524;SDS011;5819;49.648;8.330;2023-04-16T08:55:29;16.73;;;12.73;;
11524;SDS011;5819;49.648;8.330;2023-04-16T08:58:04;18.83;;;13.70;;
11524;SDS011;5819;49.648;8.330;2023-04-16T09:00:36;19.98;;;14.05;;
11524;SDS011;5819;49.648;8.330;2023-04-16T09:03:06;18.80;;;13.82;;
11524;SDS011;5819;49.648;8.330;2023-04-16T09:05:35;17.70;;;14.00;;
11524;SDS011;5819;49.648;8.330;2023-04-16T09:08:04;20.15;;;14.40;;
11524;SDS011;5819;49.648;8.330;2023-04-16T09:10:33;19.77;;;14.23;;
11524;SDS011;5819;49.648;8.330;2023-04-16T09:13:03;18.20;;;14.32;;
11524;SDS011;5819;49.648;8.330;2023-04-16T09:15:31;20.15;;;13.35;;
11524;SDS011;5819;49.648;8.330;2023-04-16T09:18:01;20.75;;;14.25;;
11524;SDS011;5819;49.648;8.330;2023-04-16T09:20:30;22.15;;;14.82;;
11524;SDS011;5819;49.648;8.330;2023-04-16T09:22:58;16.90;;;13.35;;
11524;SDS011;5819;49.648;8.330;2023-04-16T09:25:26;18.33;;;13.82;;
11524;SDS011;5819;49.648;8.330;2023-04-16T09:27:56;18.42;;;14.48;;
11524;SDS011;5819;49.648;8.330;2023-04-16T09:30:26;20.00;;;14.68;;
11524;SDS011;5819;49.648;8.330;2023-04-16T09:33:10;21.30;;;14.90;;
11524;SDS011;5819;49.648;8.330;2023-04-16T09:35:45;19.35;;;14.50;;
11524;SDS011;5819;49.648;8.330;2023-04-16T09:38:14;25.20;;;16.20;;
11524;SDS011;5819;49.648;8.330;2023-04-16T09:40:43;23.80;;;17.00;;
11524;SDS011;5819;49.648;8.330;2023-04-16T09:43:13;21.58;;;15.30;;
11524;SDS011;5819;49.648;8.330;2023-04-16T09:45:53;19.67;;;15.45;;
11524;SDS011;5819;49.648;8.330;2023-04-16T09:48:28;22.50;;;15.48;;
11524;SDS011;5819;49.648;8.330;2023-04-16T09:50:57;19.98;;;15.85;;
11524;SDS011;5819;49.648;8.330;2023-04-16T09:53:26;23.80;;;16.50;;
11524;SDS011;5819;49.648;8.330;2023-04-16T09:55:56;21.40;;;15.50;;
11524;SDS011;5819;49.648;8.330;2023-04-16T09:58:24;23.27;;;16.60;;
11524;SDS011;5819;49.648;8.330;2023-04-16T10:00:55;22.58;;;17.00;;
11524;SDS011;5819;49.648;8.330;2023-04-16T10:03:28;23.17;;;16.83;;
11524;SDS011;5819;49.648;8.330;2023-04-16T10:05:58;24.15;;;16.80;;
11524;SDS011;5819;49.648;8.330;2023-04-16T10:08:27;25.25;;;17.95;;
11524;SDS011;5819;49.648;8.330;2023-04-16T10:10:55;23.15;;;18.00;;
11524;SDS011;5819;49.648;8.330;2023-04-16T10:13:25;22.50;;;16.88;;
11524;SDS011;5819;49.648;8.330;2023-04-16T10:15:58;22.80;;;17.55;;
11524;SDS011;5819;49.648;8.330;2023-04-16T10:18:26;24.30;;;18.20;;
11524;SDS011;5819;49.648;8.330;2023-04-16T10:20:55;24.83;;;17.80;;
11524;SDS011;5819;49.648;8.330;2023-04-16T10:23:24;23.42;;;17.20;;
11524;SDS011;5819;49.648;8.330;2023-04-16T10:25:54;28.67;;;18.83;;
11524;SDS011;5819;49.648;8.330;2023-04-16T10:28:26;25.60;;;17.92;;
11524;SDS011;5819;49.648;8.330;2023-04-16T10:30:55;26.30;;;18.77;;
11524;SDS011;5819;49.648;8.330;2023-04-16T10:33:27;26.35;;;18.02;;
11524;SDS011;5819;49.648;8.330;2023-04-16T10:36:08;27.75;;;17.48;;
11524;SDS011;5819;49.648;8.330;2023-04-16T10:38:37;29.40;;;19.17;;
11524;SDS011;5819;49.648;8.330;2023-04-16T10:41:06;24.98;;;18.50;;
11524;SDS011;5819;49.648;8.330;2023-04-16T10:43:39;24.75;;;17.80;;
11524;SDS011;5819;49.648;8.330;2023-04-16T10:46:17;24.20;;;17.88;;
11524;SDS011;5819;49.648;8.330;2023-04-16T10:48:49;26.08;;;17.77;;
11524;SDS011;5819;49.648;8.330;2023-04-16T10:51:23;26.08;;;18.60;;
11524;SDS011;5819;49.648;8.330;2023-04-16T10:54:01;24.58;;;18.15;;
11524;SDS011;5819;49.648;8.330;2023-04-16T10:56:31;25.88;;;18.10;;
11524;SDS011;5819;49.648;8.330;2023-04-16T10:59:03;24.15;;;18.00;;
11524;SDS011;5819;49.648;8.330;2023-04-16T11:01:32;27.45;;;19.52;;
11524;SDS011;5819;49.648;8.330;2023-04-16T11:07:00;25.83;;;19.38;;
11524;SDS011;5819;49.648;8.330;2023-04-16T11:12:19;26.33;;;19.08;;
11524;SDS011;5819;49.648;8.330;2023-04-16T11:14:48;24.95;;;18.65;;
11524;SDS011;5819;49.648;8.330;2023-04-16T11:17:17;24.35;;;17.98;;
11524;SDS011;5819;49.648;8.330;2023-04-16T11:19:48;26.30;;;19.33;;
11524;SDS011;5819;49.648;8.330;2023-04-16T11:22:25;24.83;;;18.38;;
11524;SDS011;5819;49.648;8.330;2023-04-16T11:24:54;23.02;;;17.50;;
11524;SDS011;5819;49.648;8.330;2023-04-16T11:27:22;24.95;;;18.38;;
11524;SDS011;5819;49.648;8.330;2023-04-16T11:29:57;26.38;;;20.13;;
11524;SDS011;5819;49.648;8.330;2023-04-16T11:32:29;27.58;;;19.42;;
11524;SDS011;5819;49.648;8.330;2023-04-16T11:34:59;27.33;;;18.27;;
11524;SDS011;5819;49.648;8.330;2023-04-16T11:37:32;25.15;;;18.00;;
11524;SDS011;5819;49.648;8.330;2023-04-16T11:40:03;24.92;;;18.70;;
11524;SDS011;5819;49.648;8.330;2023-04-16T11:42:37;23.85;;;18.27;;
11524;SDS011;5819;49.648;8.330;2023-04-16T11:45:07;24.42;;;18.65;;
11524;SDS011;5819;49.648;8.330;2023-04-16T11:47:44;24.95;;;18.50;;
11524;SDS011;5819;49.648;8.330;2023-04-16T11:50:18;25.92;;;18.92;;
11524;SDS011;5819;49.648;8.330;2023-04-16T11:52:48;24.08;;;18.35;;
11524;SDS011;5819;49.648;8.330;2023-04-16T11:55:17;22.95;;;18.05;;
11524;SDS011;5819;49.648;8.330;2023-04-16T11:57:46;24.65;;;18.38;;
11524;SDS011;5819;49.648;8.330;2023-04-16T12:00:17;23.75;;;17.92;;
11524;SDS011;5819;49.648;8.330;2023-04-16T12:02:52;25.23;;;17.92;;
11524;SDS011;5819;49.648;8.330;2023-04-16T12:05:26;23.30;;;18.33;;
11524;SDS011;5819;49.648;8.330;2023-04-16T12:07:56;22.38;;;18.10;;
11524;SDS011;5819;49.648;8.330;2023-04-16T12:10:25;24.38;;;17.92;;
11524;SDS011;5819;49.648;8.330;2023-04-16T12:12:53;25.33;;;18.48;;
11524;SDS011;5819;49.648;8.330;2023-04-16T12:15:42;25.23;;;18.15;;
11524;SDS011;5819;49.648;8.330;2023-04-16T12:18:12;23.05;;;17.60;;
11524;SDS011;5819;49.648;8.330;2023-04-16T12:20:43;22.73;;;18.23;;
11524;SDS011;5819;49.648;8.330;2023-04-16T12:23:21;22.25;;;17.13;;
11524;SDS011;5819;49.648;8.330;2023-04-16T12:25:51;23.67;;;18.00;;
11524;SDS011;5819;49.648;8.330;2023-04-16T12:28:26;22.83;;;17.15;;
11524;SDS011;5819;49.648;8.330;2023-04-16T12:30:55;20.58;;;16.25;;
11524;SDS011;5819;49.648;8.330;2023-04-16T12:33:25;21.40;;;16.75;;
11524;SDS011;5819;49.648;8.330;2023-04-16T12:35:55;23.95;;;18.88;;
11524;SDS011;5819;49.648;8.330;2023-04-16T12:38:24;24.73;;;17.48;;
11524;SDS011;5819;49.648;8.330;2023-04-16T12:40:52;24.88;;;18.00;;
11524;SDS011;5819;49.648;8.330;2023-04-16T12:43:22;24.27;;;18.42;;
11524;SDS011;5819;49.648;8.330;2023-04-16T12:45:51;24.83;;;19.42;;
11524;SDS011;5819;49.648;8.330;2023-04-16T12:48:19;24.73;;;18.05;;
11524;SDS011;5819;49.648;8.330;2023-04-16T12:50:47;24.48;;;18.75;;
11524;SDS011;5819;49.648;8.330;2023-04-16T12:53:17;25.15;;;19.23;;
11524;SDS011;5819;49.648;8.330;2023-04-16T12:55:46;21.88;;;18.17;;
11524;SDS011;5819;49.648;8.330;2023-04-16T12:58:14;23.70;;;19.90;;
11524;SDS011;5819;49.648;8.330;2023-04-16T13:00:44;26.00;;;19.45;;
11524;SDS011;5819;49.648;8.330;2023-04-16T13:03:17;25.08;;;19.17;;
11524;SDS011;5819;49.648;8.330;2023-04-16T13:05:48;28.70;;;20.70;;
11524;SDS011;5819;49.648;8.330;2023-04-16T13:08:19;28.05;;;21.33;;
11524;SDS011;5819;49.648;8.330;2023-04-16T13:10:48;26.02;;;20.20;;
11524;SDS011;5819;49.648;8.330;2023-04-16T13:13:20;26.85;;;20.88;;
11524;SDS011;5819;49.648;8.330;2023-04-16T13:15:48;26.08;;;20.25;;
11524;SDS011;5819;49.648;8.330;2023-04-16T13:18:19;27.38;;;20.27;;
11524;SDS011;5819;49.648;8.330;2023-04-16T13:20:48;26.90;;;19.63;;
11524;SDS011;5819;49.648;8.330;2023-04-16T13:23:19;27.70;;;20.73;;
11524;SDS011;5819;49.648;8.330;2023-04-16T13:25:48;27.90;;;20.70;;
11524;SDS011;5819;49.648;8.330;2023-04-16T13:28:17;29.00;;;21.02;;
11524;SDS011;5819;49.648;8.330;2023-04-16T13:30:45;25.30;;;20.95;;
11524;SDS011;5819;49.648;8.330;2023-04-16T13:33:14;27.05;;;20.20;;
11524;SDS011;5819;49.648;8.330;2023-04-16T13:35:43;27.85;;;20.73;;
11524;SDS011;5819;49.648;8.330;2023-04-16T13:38:11;23.40;;;20.02;;
11524;SDS011;5819;49.648;8.330;2023-04-16T13:40:47;28.60;;;21.73;;
11524;SDS011;5819;49.648;8.330;2023-04-16T13:43:20;26.15;;;20.23;;
11524;SDS011;5819;49.648;8.330;2023-04-16T13:45:50;28.35;;;21.08;;
11524;SDS011;5819;49.648;8.330;2023-04-16T13:48:19;29.38;;;20.80;;
11524;SDS011;5819;49.648;8.330;2023-04-16T13:50:47;28.33;;;21.48;;
11524;SDS011;5819;49.648;8.330;2023-04-16T13:53:15;30.30;;;21.95;;
11524;SDS011;5819;49.648;8.330;2023-04-16T13:55:45;25.40;;;19.88;;
11524;SDS011;5819;49.648;8.330;2023-04-16T13:58:15;24.48;;;20.75;;
11524;SDS011;5819;49.648;8.330;2023-04-16T14:00:43;26.85;;;20.83;;
11524;SDS011;5819;49.648;8.330;2023-04-16T14:03:14;28.10;;;21.40;;
11524;SDS011;5819;49.648;8.330;2023-04-16T14:05:42;27.63;;;22.60;;
11524;SDS011;5819;49.648;8.330;2023-04-16T14:08:10;27.00;;;21.65;;
11524;SDS011;5819;49.648;8.330;2023-04-16T14:10:40;28.83;;;22.90;;
11524;SDS011;5819;49.648;8.330;2023-04-16T14:13:09;29.23;;;22.95;;
11524;SDS011;5819;49.648;8.330;2023-04-16T14:15:38;29.90;;;23.58;;
11524;SDS011;5819;49.648;8.330;2023-04-16T14:18:07;35.10;;;24.80;;
11524;SDS011;5819;49.648;8.330;2023-04-16T14:20:35;28.40;;;23.50;;
11524;SDS011;5819;49.648;8.330;2023-04-16T14:23:06;28.48;;;23.70;;
11524;SDS011;5819;49.648;8.330;2023-04-16T14:25:34;31.42;;;26.23;;
11524;SDS011;5819;49.648;8.330;2023-04-16T14:28:04;33.78;;;27.85;;
11524;SDS011;5819;49.648;8.330;2023-04-16T14:30:35;33.05;;;26.45;;
11524;SDS011;5819;49.648;8.330;2023-04-16T14:33:04;33.05;;;26.90;;
11524;SDS011;5819;49.648;8.330;2023-04-16T14:35:32;30.92;;;25.10;;
11524;SDS011;5819;49.648;8.330;2023-04-16T14:38:01;29.33;;;23.52;;
11524;SDS011;5819;49.648;8.330;2023-04-16T14:40:29;31.67;;;26.00;;
11524;SDS011;5819;49.648;8.330;2023-04-16T14:42:59;31.17;;;25.83;;
11524;SDS011;5819;49.648;8.330;2023-04-16T14:45:27;32.47;;;26.70;;
11524;SDS011;5819;49.648;8.330;2023-04-16T14:47:59;33.25;;;27.17;;
11524;SDS011;5819;49.648;8.330;2023-04-16T14:50:27;32.47;;;26.67;;
11524;SDS011;5819;49.648;8.330;2023-04-16T14:52:55;29.70;;;24.75;;
11524;SDS011;5819;49.648;8.330;2023-04-16T14:55:24;27.70;;;24.27;;